createdAt,value
2019-03-10T00:01:58.040Z,480.70
2019-03-10T00:04:04.806Z,479.30
2019-03-10T00:06:09.524Z,477.90
2019-03-10T00:08:14.189Z,465.57
2019-03-10T00:10:19.034Z,459.23
2019-03-10T00:12:27.520Z,491.27
2019-03-10T00:14:34.495Z,575.13
2019-03-10T00:16:39.154Z,664.53
2019-03-10T00:18:44.019Z,750.87
2019-03-10T00:20:49.490Z,638.97
2019-03-10T00:22:54.363Z,599.63
2019-03-10T00:24:59.146Z,550.10
2019-03-10T00:27:04.620Z,539.73
2019-03-10T00:29:09.304Z,542.83
2019-03-10T00:31:15.462Z,535.93
2019-03-10T00:33:20.408Z,529.07
2019-03-10T00:35:25.146Z,513.37
2019-03-10T00:37:29.423Z,539.77
2019-03-10T00:40:12.958Z,593.07
2019-03-10T00:42:49.654Z,713.77
2019-03-10T00:45:34.285Z,709.40
2019-03-10T00:48:05.122Z,725.77
2019-03-10T00:50:53.672Z,973.80
2019-03-10T00:53:01.343Z,789.70
2019-03-10T00:55:08.098Z,688.87
2019-03-10T00:57:12.521Z,809.93
2019-03-10T00:59:16.902Z,714.97
2019-03-10T01:01:21.333Z,608.63
2019-03-10T01:03:25.617Z,855.93
2019-03-10T01:05:30.042Z,668.57
2019-03-10T01:07:34.698Z,749.97
2019-03-10T01:09:39.320Z,594.17
2019-03-10T01:11:43.907Z,534.20
2019-03-10T01:13:48.589Z,488.03
2019-03-10T01:15:52.830Z,528.10
2019-03-10T01:17:57.403Z,653.10
2019-03-10T01:20:02.204Z,663.63
2019-03-10T01:22:07.125Z,631.83
2019-03-10T01:24:11.522Z,634.63
2019-03-10T01:26:16.132Z,615.43
2019-03-10T01:28:20.593Z,561.23
2019-03-10T01:30:25.291Z,541.00
2019-03-10T01:33:06.841Z,516.30
2019-03-10T01:35:23.459Z,505.70
2019-03-10T01:37:27.903Z,496.33
2019-03-10T01:39:32.565Z,479.87
2019-03-10T01:41:36.966Z,475.80
2019-03-10T01:43:41.513Z,461.90
2019-03-10T01:45:46.500Z,462.47
2019-03-10T01:47:51.073Z,441.47
2019-03-10T01:49:55.473Z,432.40
2019-03-10T01:51:59.959Z,434.13
2019-03-10T01:54:04.801Z,425.40
2019-03-10T01:56:09.438Z,421.47
2019-03-10T01:58:13.979Z,399.10
2019-03-10T02:00:18.494Z,390.40
2019-03-10T02:02:25.741Z,389.43
2019-03-10T02:04:28.879Z,373.77
2019-03-10T02:06:33.341Z,369.17
2019-03-10T02:08:37.738Z,360.50
2019-03-10T02:10:42.494Z,359.70
2019-03-10T02:12:47.731Z,346.80
2019-03-10T02:14:52.371Z,334.80
2019-03-10T02:16:57.810Z,326.97
2019-03-10T02:19:02.539Z,319.70
2019-03-10T02:21:09.123Z,311.07
2019-03-10T02:23:13.898Z,309.70
2019-03-10T02:25:18.314Z,471.63
2019-03-10T02:27:22.506Z,483.37
2019-03-10T02:29:26.859Z,376.17
2019-03-10T02:31:31.807Z,304.10
2019-03-10T02:33:36.242Z,298.03
2019-03-10T02:35:40.646Z,278.10
2019-03-10T02:37:45.335Z,263.77
2019-03-10T02:39:49.829Z,259.37
2019-03-10T02:41:54.348Z,432.40
2019-03-10T02:43:58.609Z,510.57
2019-03-10T02:46:03.204Z,509.33
2019-03-10T02:48:07.967Z,506.90
2019-03-10T02:50:12.575Z,669.03
2019-03-10T02:52:17.120Z,728.07
2019-03-10T02:54:22.169Z,1213.37
2019-03-10T02:56:26.882Z,1142.23
2019-03-10T02:58:32.557Z,1115.73
2019-03-10T03:00:38.845Z,1080.67
2019-03-10T03:02:45.192Z,951.90
2019-03-10T03:04:51.210Z,919.83
2019-03-10T03:06:55.929Z,947.10
2019-03-10T03:09:01.142Z,870.43
2019-03-10T03:11:07.855Z,751.00
2019-03-10T03:13:12.226Z,756.37
2019-03-10T03:15:16.561Z,920.73
2019-03-10T03:17:20.892Z,1078.57
2019-03-10T03:19:25.509Z,1411.53
2019-03-10T03:21:42.476Z,1031.83
2019-03-10T03:23:35.967Z,1003.07
2019-03-10T03:25:40.453Z,855.73
2019-03-10T03:27:44.695Z,872.47
2019-03-10T03:29:49.121Z,871.90
2019-03-10T03:31:53.819Z,700.60
2019-03-10T03:33:58.164Z,568.33
2019-03-10T03:36:22.345Z,489.63
2019-03-10T03:38:33.676Z,407.10
2019-03-10T03:40:38.315Z,357.50
2019-03-10T03:42:42.746Z,326.87
2019-03-10T03:44:47.369Z,306.93
2019-03-10T03:46:52.049Z,289.07
2019-03-10T03:48:56.554Z,393.67
2019-03-10T03:51:01.333Z,462.83
2019-03-10T03:53:07.018Z,1023.73
2019-03-10T03:55:11.656Z,796.63
2019-03-10T03:57:16.138Z,541.63
2019-03-10T03:59:20.656Z,389.80
2019-03-10T04:01:31.785Z,294.33
2019-03-10T04:03:36.090Z,272.13
2019-03-10T04:05:41.037Z,247.73
2019-03-10T04:07:45.565Z,253.50
2019-03-10T04:09:50.229Z,251.03
2019-03-10T04:11:54.796Z,245.47
2019-03-10T04:13:59.310Z,230.53
2019-03-10T04:16:04.947Z,225.57
2019-03-10T04:18:09.618Z,221.23
2019-03-10T04:20:13.991Z,217.30
2019-03-10T04:22:19.092Z,210.67
2019-03-10T04:24:23.590Z,206.10
2019-03-10T04:26:29.548Z,201.77
2019-03-10T04:28:34.116Z,203.07
2019-03-10T04:30:38.705Z,188.13
2019-03-10T04:32:43.681Z,183.80
2019-03-10T04:34:48.518Z,182.67
2019-03-10T04:36:52.682Z,181.37
2019-03-10T04:38:57.254Z,169.33
2019-03-10T04:41:01.512Z,172.23
2019-03-10T04:43:05.940Z,164.70
2019-03-10T04:45:10.465Z,161.67
2019-03-10T04:47:15.126Z,160.00
2019-03-10T04:49:19.379Z,158.27
2019-03-10T04:51:24.099Z,153.97
2019-03-10T04:53:28.735Z,152.97
2019-03-10T04:55:47.474Z,148.00
2019-03-10T04:58:16.658Z,139.50
2019-03-10T05:00:21.031Z,141.10
2019-03-10T05:02:25.523Z,135.73
2019-03-10T05:04:31.574Z,138.47
2019-03-10T05:06:36.181Z,122.57
2019-03-10T05:08:40.480Z,127.50
2019-03-10T05:10:45.116Z,125.03
2019-03-10T05:12:49.491Z,123.67
2019-03-10T05:14:54.018Z,116.13
2019-03-10T05:16:58.477Z,116.27
2019-03-10T05:19:03.342Z,112.67
2019-03-10T05:21:08.005Z,111.13
2019-03-10T05:23:38.490Z,112.80
2019-03-10T05:25:43.120Z,105.10
2019-03-10T05:27:47.814Z,104.40
2019-03-10T05:29:52.317Z,108.53
2019-03-10T05:31:56.761Z,100.30
2019-03-10T05:34:01.651Z,102.37
2019-03-10T05:36:06.817Z,91.97
2019-03-10T05:38:11.627Z,95.90
2019-03-10T05:40:16.366Z,92.07
2019-03-10T05:42:20.832Z,89.53
2019-03-10T05:44:25.227Z,86.30
2019-03-10T05:46:29.410Z,81.13
2019-03-10T05:48:33.865Z,88.30
2019-03-10T05:50:38.414Z,75.13
2019-03-10T05:52:42.944Z,74.57
2019-03-10T05:54:47.702Z,75.63
2019-03-10T05:56:51.878Z,73.83
2019-03-10T05:58:56.455Z,75.97
2019-03-10T06:01:00.871Z,75.63
2019-03-10T06:03:05.490Z,73.70
2019-03-10T06:05:10.259Z,70.20
2019-03-10T06:07:14.501Z,69.57
2019-03-10T06:09:18.913Z,68.73
2019-03-10T06:11:23.520Z,66.03
2019-03-10T06:13:27.884Z,70.60
2019-03-10T06:15:32.732Z,62.60
2019-03-10T06:17:37.207Z,62.80
2019-03-10T06:19:41.628Z,62.93
2019-03-10T06:21:46.806Z,58.47
2019-03-10T06:23:51.123Z,59.87
2019-03-10T06:25:55.895Z,56.83
2019-03-10T06:28:00.277Z,54.40
2019-03-10T06:30:06.029Z,58.87
2019-03-10T06:32:10.481Z,49.80
2019-03-10T06:34:15.271Z,50.90
2019-03-10T06:36:20.649Z,50.03
2019-03-10T06:38:25.609Z,54.60
2019-03-10T06:40:32.413Z,52.00
2019-03-10T06:42:36.010Z,48.23
2019-03-10T06:44:40.390Z,47.03
2019-03-10T06:46:44.621Z,47.10
2019-03-10T06:48:49.032Z,45.77
2019-03-10T06:50:53.281Z,42.53
2019-03-10T06:52:57.483Z,44.53
2019-03-10T06:55:01.803Z,45.10
2019-03-10T06:57:06.111Z,43.83
2019-03-10T06:59:10.633Z,45.87
2019-03-10T07:01:15.712Z,38.33
2019-03-10T07:03:20.411Z,38.70
2019-03-10T07:05:24.880Z,39.60
2019-03-10T07:07:29.356Z,35.67
2019-03-10T07:09:33.880Z,37.77
2019-03-10T07:11:38.048Z,40.07
2019-03-10T07:13:42.825Z,31.87
2019-03-10T07:15:47.096Z,36.23
2019-03-10T07:17:51.642Z,37.23
2019-03-10T07:19:56.076Z,35.23
2019-03-10T07:22:00.722Z,31.03
2019-03-10T07:24:05.376Z,33.83
2019-03-10T07:26:11.246Z,30.40
2019-03-10T07:28:35.778Z,31.23
2019-03-10T07:30:55.977Z,31.33
2019-03-10T07:33:31.737Z,34.47
2019-03-10T07:35:48.080Z,30.10
2019-03-10T07:38:14.229Z,29.53
2019-03-10T07:40:52.499Z,28.97
2019-03-10T07:43:25.971Z,27.17
2019-03-10T07:45:39.270Z,28.40
2019-03-10T07:47:57.973Z,27.00
2019-03-10T07:50:14.514Z,28.43
2019-03-10T07:52:37.865Z,24.53
2019-03-10T07:55:07.640Z,23.90
2019-03-10T07:57:29.447Z,23.30
2019-03-10T07:59:49.451Z,24.30
2019-03-10T08:02:11.471Z,23.13
2019-03-10T08:04:24.879Z,23.57
2019-03-10T08:06:57.847Z,22.07
2019-03-10T08:09:13.812Z,20.90
2019-03-10T08:11:27.637Z,22.07
2019-03-10T08:13:46.774Z,19.60
2019-03-10T08:16:11.678Z,21.27
2019-03-10T08:18:38.887Z,19.50
2019-03-10T08:21:15.202Z,18.50
2019-03-10T08:23:48.963Z,21.37
2019-03-10T08:26:08.398Z,18.90
2019-03-10T08:28:43.522Z,18.00
2019-03-10T08:31:22.513Z,16.90
2019-03-10T08:33:45.030Z,19.23
2019-03-10T08:35:59.351Z,20.60
2019-03-10T08:38:37.733Z,19.73
2019-03-10T08:40:52.485Z,15.83
2019-03-10T08:43:12.729Z,17.60
2019-03-10T08:45:36.317Z,14.90
2019-03-10T08:47:57.986Z,14.67
2019-03-10T08:50:08.100Z,14.30
2019-03-10T08:52:22.536Z,15.70
2019-03-10T08:54:35.541Z,15.07
2019-03-10T08:56:59.815Z,15.00
2019-03-10T08:59:26.720Z,14.40
2019-03-10T09:02:11.193Z,13.40
2019-03-10T09:04:36.115Z,12.00
2019-03-10T09:07:07.099Z,12.90
2019-03-10T09:09:39.492Z,11.50
2019-03-10T09:12:40.300Z,12.37
2019-03-10T09:15:18.490Z,11.37
2019-03-10T09:17:46.872Z,11.20
2019-03-10T09:20:22.301Z,13.67
2019-03-10T09:22:51.421Z,12.47
2019-03-10T09:25:26.662Z,11.17
2019-03-10T09:27:59.167Z,10.17
2019-03-10T09:30:20.741Z,10.40
2019-03-10T09:32:51.677Z,11.17
2019-03-10T09:35:09.508Z,9.27
2019-03-10T09:37:33.844Z,9.47
2019-03-10T09:39:53.920Z,9.33
2019-03-10T09:42:15.858Z,9.43
2019-03-10T09:44:50.288Z,9.20
2019-03-10T09:47:25.491Z,8.87
2019-03-10T09:50:12.198Z,8.93
2019-03-10T09:52:39.813Z,8.57
2019-03-10T09:55:10.676Z,8.23
2019-03-10T09:57:39.554Z,7.50
2019-03-10T09:59:56.311Z,8.77
2019-03-10T10:02:36.368Z,7.83
2019-03-10T10:04:48.235Z,8.23
2019-03-10T10:07:16.297Z,7.30
2019-03-10T10:09:31.562Z,7.87
2019-03-10T10:12:12.639Z,7.00
2019-03-10T10:14:18.961Z,7.20
2019-03-10T10:16:31.772Z,8.83
2019-03-10T10:18:58.535Z,7.47
2019-03-10T10:21:23.163Z,7.37
2019-03-10T10:23:40.305Z,7.30
2019-03-10T10:26:11.093Z,6.83
2019-03-10T10:28:28.255Z,6.50
2019-03-10T10:30:54.756Z,6.53
2019-03-10T10:33:18.623Z,6.70
2019-03-10T10:35:40.115Z,7.00
2019-03-10T10:38:03.943Z,4.93
2019-03-10T10:40:24.640Z,6.43
2019-03-10T10:42:46.546Z,5.57
2019-03-10T10:45:04.252Z,5.90
2019-03-10T10:47:29.790Z,5.67
2019-03-10T10:49:57.725Z,5.30
2019-03-10T10:52:17.149Z,5.37
2019-03-10T10:54:52.380Z,5.33
2019-03-10T10:57:21.649Z,5.43
2019-03-10T10:59:58.212Z,4.97
2019-03-10T11:02:13.814Z,5.17
2019-03-10T11:04:42.297Z,5.23
2019-03-10T11:07:02.915Z,6.83
2019-03-10T11:09:37.731Z,5.30
2019-03-10T11:11:52.987Z,4.40
2019-03-10T11:14:32.425Z,5.50
2019-03-10T11:17:04.430Z,5.00
2019-03-10T11:19:27.977Z,5.00
2019-03-10T11:21:53.500Z,49.73
2019-03-10T11:24:22.595Z,777.57
2019-03-10T11:26:57.841Z,845.63
2019-03-10T11:29:11.422Z,991.77
2019-03-10T11:31:35.748Z,976.03
2019-03-10T11:33:54.130Z,718.37
2019-03-10T11:36:17.372Z,1455.07
2019-03-10T11:38:31.453Z,917.23
2019-03-10T11:40:50.462Z,1187.23
2019-03-10T11:43:22.879Z,760.30
2019-03-10T11:45:43.285Z,504.10
2019-03-10T11:48:07.543Z,1512.93
2019-03-10T11:50:19.471Z,1218.43
2019-03-10T11:52:44.049Z,614.50
2019-03-10T11:55:01.013Z,495.77
2019-03-10T11:57:22.935Z,181.90
2019-03-10T11:59:33.794Z,113.73
2019-03-10T12:01:59.525Z,87.77
2019-03-10T12:04:19.130Z,1042.57
2019-03-10T12:06:30.403Z,181.37
2019-03-10T12:09:05.326Z,141.10
2019-03-10T12:11:10.196Z,1565.40
2019-03-10T12:13:14.825Z,1632.53
2019-03-10T12:15:19.191Z,1724.40
2019-03-10T12:17:23.710Z,1234.90
2019-03-10T12:19:33.870Z,717.03
2019-03-10T12:21:40.006Z,446.83
2019-03-10T12:23:44.785Z,453.90
2019-03-10T12:25:49.795Z,570.90
2019-03-10T12:27:54.138Z,549.50
2019-03-10T12:29:59.714Z,126.87
2019-03-10T12:32:04.236Z,72.93
2019-03-10T12:34:08.507Z,44.23
2019-03-10T12:36:12.854Z,27.83
2019-03-10T12:38:17.394Z,28.40
2019-03-10T12:40:21.637Z,13.70
2019-03-10T12:42:26.162Z,7.13
2019-03-10T12:44:30.807Z,9.10
2019-03-10T12:46:35.591Z,9.63
2019-03-10T12:48:41.410Z,4.23
2019-03-10T12:50:45.719Z,5.00
2019-03-10T12:52:50.026Z,4.60
2019-03-10T12:54:54.260Z,4.70
2019-03-10T12:56:58.624Z,42.40
2019-03-10T12:59:04.626Z,45.53
2019-03-10T13:01:09.068Z,112.40
2019-03-10T13:03:13.911Z,22.17
2019-03-10T13:05:20.104Z,11.93
2019-03-10T13:07:25.705Z,7.10
2019-03-10T13:09:29.983Z,18.70
2019-03-10T13:11:34.644Z,120.37
2019-03-10T13:13:38.991Z,184.97
2019-03-10T13:15:43.346Z,28.70
2019-03-10T13:17:56.213Z,414.97
2019-03-10T13:20:00.448Z,826.77
2019-03-10T13:22:05.277Z,98.40
2019-03-10T13:24:09.561Z,382.43
2019-03-10T13:26:15.247Z,426.20
2019-03-10T13:28:19.617Z,473.23
2019-03-10T13:30:24.438Z,638.17
2019-03-10T13:32:29.423Z,690.00
2019-03-10T13:34:33.739Z,934.73
2019-03-10T13:36:38.673Z,774.73
2019-03-10T13:38:43.373Z,746.83
2019-03-10T13:40:48.039Z,601.47
2019-03-10T13:42:52.730Z,446.50
2019-03-10T13:44:57.381Z,226.23
2019-03-10T13:47:01.631Z,108.63
2019-03-10T13:49:09.736Z,33.80
2019-03-10T13:51:14.447Z,11.90
2019-03-10T13:53:18.739Z,5.93
2019-03-10T13:55:22.940Z,5.80
2019-03-10T13:57:27.171Z,2.70
2019-03-10T13:59:31.532Z,2.43
2019-03-10T14:01:36.751Z,58.77
2019-03-10T14:03:41.871Z,14.73
2019-03-10T14:05:46.727Z,162.57
2019-03-10T14:07:51.188Z,275.90
2019-03-10T14:09:55.719Z,220.13
2019-03-10T14:12:02.191Z,516.90
2019-03-10T14:14:06.582Z,215.03
2019-03-10T14:16:11.031Z,899.57
2019-03-10T14:18:15.706Z,569.60
2019-03-10T14:20:19.996Z,179.87
2019-03-10T14:22:24.264Z,116.23
2019-03-10T14:24:28.577Z,19.03
2019-03-10T14:26:33.460Z,7.73
2019-03-10T14:28:37.764Z,2.70
2019-03-10T14:30:42.519Z,1.30
2019-03-10T14:32:47.085Z,2.00
2019-03-10T14:34:52.044Z,1.60
2019-03-10T14:36:56.666Z,1.70
2019-03-10T14:39:00.991Z,1.60
2019-03-10T14:41:05.820Z,1.53
2019-03-10T14:43:10.349Z,1.57
2019-03-10T14:45:15.159Z,1.60
2019-03-10T14:47:20.975Z,1.33
2019-03-10T14:49:25.331Z,1.30
2019-03-10T14:51:33.370Z,1.47
2019-03-10T14:53:38.150Z,1.40
2019-03-10T14:55:43.322Z,1.30
2019-03-10T14:57:48.379Z,2.03
2019-03-10T14:59:53.291Z,1.70
2019-03-10T15:02:00.120Z,2.17
2019-03-10T15:04:05.099Z,1.53
2019-03-10T15:06:10.864Z,1.40
2019-03-10T15:08:15.164Z,1.50
2019-03-10T15:10:19.951Z,1.20
2019-03-10T15:12:24.673Z,1.60
2019-03-10T15:14:29.092Z,1.67
2019-03-10T15:16:33.763Z,1.83
2019-03-10T15:18:38.352Z,1.73
2019-03-10T15:20:43.461Z,1.37
2019-03-10T15:22:48.099Z,2.07
2019-03-10T15:24:53.231Z,1.77
2019-03-10T15:26:57.687Z,1.50
2019-03-10T15:29:02.388Z,1.47
2019-03-10T15:31:12.591Z,1.90
2019-03-10T15:33:18.034Z,1.53
2019-03-10T15:35:22.440Z,1.67
2019-03-10T15:37:26.825Z,1.30
2019-03-10T15:39:31.603Z,1.50
2019-03-10T15:41:38.800Z,1.47
2019-03-10T15:43:45.406Z,1.53
2019-03-10T15:45:52.137Z,2.00
2019-03-10T15:47:57.283Z,1.80
2019-03-10T15:50:09.674Z,1.47
2019-03-10T15:52:16.905Z,1.40
2019-03-10T15:54:22.390Z,2.50
2019-03-10T15:56:26.706Z,1.30
2019-03-10T15:58:31.360Z,1.63
2019-03-10T16:00:37.975Z,2.27
2019-03-10T16:02:42.830Z,3.10
2019-03-10T16:04:49.523Z,2.60
2019-03-10T16:06:55.122Z,2.37
2019-03-10T16:09:00.794Z,2.30
2019-03-10T16:11:10.271Z,1.90
2019-03-10T16:13:18.069Z,1.93
2019-03-10T16:15:22.690Z,2.27
2019-03-10T16:17:27.040Z,2.20
2019-03-10T16:19:32.020Z,1.90
2019-03-10T16:21:37.119Z,1.47
2019-03-10T16:23:42.000Z,2.40
2019-03-10T16:25:48.346Z,2.70
2019-03-10T16:27:53.374Z,1.30
2019-03-10T16:29:58.065Z,4.40
2019-03-10T16:32:04.440Z,1.60
2019-03-10T16:34:11.537Z,1.70
2019-03-10T16:36:15.938Z,2.17
2019-03-10T16:38:20.287Z,2.80
2019-03-10T16:40:24.463Z,66.93
2019-03-10T16:42:29.048Z,10.23
2019-03-10T16:44:34.640Z,513.57
2019-03-10T16:46:39.320Z,748.73
2019-03-10T16:48:44.185Z,408.73
2019-03-10T16:50:49.084Z,125.00
2019-03-10T16:52:53.393Z,33.20
2019-03-10T16:54:57.677Z,8.83
2019-03-10T16:57:01.974Z,5.13
2019-03-10T16:59:10.303Z,4.07
2019-03-10T17:01:14.774Z,2.53
2019-03-10T17:03:19.531Z,7.33
2019-03-10T17:05:23.795Z,1.90
2019-03-10T17:07:28.116Z,4.50
2019-03-10T17:09:32.485Z,2.30
2019-03-10T17:11:38.814Z,1.83
2019-03-10T17:13:43.203Z,464.70
2019-03-10T17:15:48.101Z,451.57
2019-03-10T17:17:52.451Z,691.30
2019-03-10T17:19:57.264Z,804.33
2019-03-10T17:22:03.018Z,862.47
2019-03-10T17:24:07.889Z,555.03
2019-03-10T17:26:12.393Z,584.40
2019-03-10T17:28:16.901Z,986.70
2019-03-10T17:30:22.158Z,1158.90
2019-03-10T17:32:26.574Z,1384.03
2019-03-10T17:34:31.176Z,1024.23
2019-03-10T17:36:35.495Z,538.20
2019-03-10T17:38:40.285Z,553.47
2019-03-10T17:40:44.804Z,490.43
2019-03-10T17:42:49.456Z,231.60
2019-03-10T17:44:54.181Z,73.20
2019-03-10T17:47:00.330Z,227.43
2019-03-10T17:49:04.845Z,350.00
2019-03-10T17:51:11.099Z,255.93
2019-03-10T17:53:16.156Z,195.87
2019-03-10T17:55:21.130Z,290.50
2019-03-10T17:57:25.551Z,614.70
2019-03-10T17:59:29.937Z,180.23
2019-03-10T18:01:34.902Z,215.10
2019-03-10T18:03:41.252Z,612.80
2019-03-10T18:05:45.602Z,702.63
2019-03-10T18:07:49.961Z,550.10
2019-03-10T18:09:54.248Z,125.20
2019-03-10T18:11:58.851Z,32.73
2019-03-10T18:14:11.801Z,20.10
2019-03-10T18:16:16.468Z,437.20
2019-03-10T18:18:21.019Z,265.87
2019-03-10T18:20:25.468Z,39.13
2019-03-10T18:22:31.423Z,83.07
2019-03-10T18:24:36.425Z,132.60
2019-03-10T18:26:43.496Z,489.90
2019-03-10T18:28:48.070Z,51.87
2019-03-10T18:30:52.490Z,669.67
2019-03-10T18:32:56.939Z,674.77
2019-03-10T18:35:01.631Z,302.20
2019-03-10T18:37:08.818Z,60.13
2019-03-10T18:39:13.733Z,67.47
2019-03-10T18:41:18.495Z,265.57
2019-03-10T18:43:25.237Z,112.13
2019-03-10T18:45:33.004Z,139.93
2019-03-10T18:47:37.785Z,42.80
2019-03-10T18:49:42.716Z,87.97
2019-03-10T18:51:49.026Z,233.13
2019-03-10T18:53:53.478Z,155.63
2019-03-10T18:55:58.318Z,323.77
2019-03-10T18:58:03.289Z,705.53
2019-03-10T19:00:23.536Z,507.27
2019-03-10T19:02:28.606Z,418.30
2019-03-10T19:04:36.749Z,496.00
2019-03-10T19:06:42.014Z,111.63
2019-03-10T19:08:46.478Z,24.63
2019-03-10T19:10:51.695Z,238.20
2019-03-10T19:12:57.187Z,335.60
2019-03-10T19:15:04.885Z,241.97
2019-03-10T19:17:14.185Z,117.67
2019-03-10T19:19:20.554Z,288.30
2019-03-10T19:21:29.994Z,154.40
2019-03-10T19:23:36.529Z,61.60
2019-03-10T19:25:52.043Z,152.83
2019-03-10T19:27:54.691Z,28.03
2019-03-10T19:29:59.387Z,3.37
2019-03-10T19:32:06.284Z,2.70
2019-03-10T19:34:10.858Z,1.50
2019-03-10T19:36:18.669Z,1.30
2019-03-10T19:38:24.874Z,4.63
2019-03-10T19:40:30.068Z,46.23
2019-03-10T19:42:34.600Z,116.30
2019-03-10T19:44:42.801Z,4.10
2019-03-10T19:46:49.415Z,1.57
2019-03-10T19:48:55.336Z,3.33
2019-03-10T19:51:04.691Z,53.60
2019-03-10T19:53:11.624Z,2.47
2019-03-10T19:55:18.731Z,130.37
2019-03-10T19:57:25.931Z,9.10
2019-03-10T19:59:31.525Z,348.47
2019-03-10T20:01:40.467Z,102.20
2019-03-10T20:03:45.696Z,13.40
2019-03-10T20:05:50.354Z,333.43
2019-03-10T20:07:55.356Z,504.60
2019-03-10T20:10:00.110Z,353.03
2019-03-10T20:12:06.927Z,111.07
2019-03-10T20:14:13.163Z,20.10
2019-03-10T20:16:17.682Z,4.93
2019-03-10T20:18:22.637Z,18.70
2019-03-10T20:20:27.586Z,3.77
2019-03-10T20:22:33.469Z,12.83
2019-03-10T20:24:41.271Z,2.73
2019-03-10T20:26:45.807Z,28.20
2019-03-10T20:28:52.785Z,2.23
2019-03-10T20:30:57.863Z,2.27
2019-03-10T20:33:02.817Z,470.90
2019-03-10T20:35:07.981Z,306.70
2019-03-10T20:37:13.232Z,23.70
2019-03-10T20:39:18.804Z,38.00
2019-03-10T20:41:25.057Z,306.23
2019-03-10T20:43:32.160Z,105.87
2019-03-10T20:45:39.023Z,8.53
2019-03-10T20:47:45.225Z,10.97
2019-03-10T20:49:50.460Z,176.23
2019-03-10T20:51:55.357Z,108.90
2019-03-10T20:54:00.967Z,144.87
2019-03-10T20:56:07.716Z,84.07
2019-03-10T20:58:14.775Z,41.53
2019-03-10T21:00:23.313Z,13.87
2019-03-10T21:02:30.201Z,11.57
2019-03-10T21:04:34.759Z,151.17
2019-03-10T21:06:40.319Z,33.60
2019-03-10T21:08:46.520Z,18.10
2019-03-10T21:10:51.066Z,17.60
2019-03-10T21:12:56.019Z,21.03
2019-03-10T21:15:00.603Z,156.20
2019-03-10T21:17:05.608Z,808.23
2019-03-10T21:19:10.431Z,532.77
2019-03-10T21:21:15.586Z,759.33
2019-03-10T21:23:20.127Z,697.93
2019-03-10T21:25:25.000Z,470.67
2019-03-10T21:27:31.891Z,438.83
2019-03-10T21:29:36.743Z,236.10
2019-03-10T21:31:41.423Z,282.93
2019-03-10T21:33:47.681Z,494.00
2019-03-10T21:35:52.385Z,248.77
2019-03-10T21:37:58.146Z,111.63
2019-03-10T21:40:04.610Z,453.23
2019-03-10T21:42:13.935Z,514.30
2019-03-10T21:44:26.448Z,427.40
2019-03-10T21:46:25.199Z,244.73
2019-03-10T21:48:33.111Z,67.03
2019-03-10T21:50:41.067Z,35.43
2019-03-10T21:52:45.516Z,29.90
2019-03-10T21:54:50.660Z,30.27
2019-03-10T21:56:58.914Z,34.90
2019-03-10T21:59:04.610Z,30.13
2019-03-10T22:01:12.425Z,62.20
2019-03-10T22:03:17.707Z,61.57
2019-03-10T22:05:22.686Z,264.97
2019-03-10T22:07:28.016Z,732.87
2019-03-10T22:09:32.487Z,490.27
2019-03-10T22:11:37.331Z,574.80
2019-03-10T22:13:46.486Z,517.87
2019-03-10T22:15:48.172Z,770.60
2019-03-10T22:17:52.678Z,449.03
2019-03-10T22:19:58.047Z,172.57
2019-03-10T22:22:03.575Z,686.87
2019-03-10T22:24:08.498Z,345.73
2019-03-10T22:26:14.277Z,218.57
2019-03-10T22:35:19.210Z,17.50
2019-03-10T22:37:23.503Z,20.87
2019-03-10T22:39:28.618Z,21.40
2019-03-10T22:41:32.978Z,22.10
2019-03-10T22:43:37.310Z,24.40
2019-03-10T22:45:42.134Z,28.30
2019-03-10T22:47:46.686Z,25.47
2019-03-10T22:49:51.742Z,23.27
2019-03-10T22:51:56.114Z,23.17
2019-03-10T22:54:00.705Z,24.17
2019-03-10T22:56:06.106Z,23.43
2019-03-10T22:58:11.187Z,24.00
2019-03-10T23:00:21.114Z,22.43
2019-03-10T23:04:40.203Z,22.47
2019-03-10T23:06:44.445Z,22.70
2019-03-10T23:08:54.606Z,21.97
2019-03-10T23:11:00.330Z,20.90
2019-03-10T23:13:04.957Z,19.50
2019-03-10T23:15:12.193Z,20.40
2019-03-10T23:17:17.155Z,20.37
2019-03-10T23:19:21.449Z,18.87
2019-03-10T23:21:33.453Z,18.17
2019-03-10T23:23:38.429Z,204.37
2019-03-10T23:25:42.792Z,804.00
2019-03-10T23:27:47.970Z,917.47
2019-03-10T23:29:53.693Z,743.70
2019-03-10T23:31:58.452Z,533.17
2019-03-10T23:34:03.531Z,188.70
2019-03-10T23:36:08.765Z,56.53
2019-03-10T23:38:13.443Z,25.33
2019-03-10T23:40:18.070Z,21.40
2019-03-10T23:42:22.963Z,17.70
2019-03-10T23:44:27.192Z,16.17
2019-03-10T23:46:31.725Z,16.57
2019-03-10T23:48:36.910Z,15.43
2019-03-10T23:50:41.463Z,15.10
2019-03-10T23:52:46.093Z,16.70
2019-03-10T23:54:51.081Z,15.17
2019-03-10T23:56:55.651Z,15.17
2019-03-10T23:59:00.090Z,15.57
